Aérodrome :
LOGIN :

S'inscrire | Disclaimer

   EN    FR    IT 

 










Légende :    VFR   VFR Marginal   IFR   IFR Intensif   IFR Très Intensif
Visi : 
Plafond : 
>= 8 km
>= 3000ft
5 à 8 km
1000 à 3000 ft
1500m à 5 km
500 à 1000 ft
800 à 1500m
200 à 500 ft
< 800m
< 200 ft
Symboles :   Orages  Brouillard  Fortes neiges  Fortes précipitations  Vent > 20 kt
SIGMETs :   Divers  Orages  Givrage  Turbulence  Onde Orograph.  Cendres Volcan.







- Altitude de l'aérodrome : 1768 ft


LEHC - Huesca Pirineos

DERNIER METAR :
  • 261800Z AUTO 22004KT 9999 NCD 15/M06 Q1019

METARs EXPIRÉS :
  • 261730Z AUTO 21007KT 9999 NCD 17/M07 Q1019
  • 261700Z AUTO 22009KT 190V250 9999 NCD 18/M08 Q1019
  • 261630Z AUTO 21010KT 170V240 9999 NCD 18/M07 Q1019
  • 261600Z 22010KT 190V250 CAVOK 18/M06 Q1019

TAF TAF LEHC
Valide du 26 à 15h jusqu'au 27 à 15h UTC


261400Z 2615/2715 25008KT CAVOK TX19/2713Z TN03/2706Z
TEMPO 2615/2620 05012KT
BECMG 2620/2622 05008KT
BECMG 2706/2709 25009KT
Pas de NOTAMs connus pour ce terrain.
2 SIGMETs publiés pour la FIR Madrid (LECM) :
 
Turbulence forte
LECM SIGMET 6 VALID 261600/262000 LEVA
LECM MADRID FIR SEV TURB FCST S OF LINE N3700 W00721 - N3648 W00203 SFC/FL050 STNR NC=
Turbulence forte
LECM SIGMET 5 VALID 261600/262000 LEVA
LECM MADRID FIR SEV TURB FCST WI N3822 W00253 - N3733 W00332 - N3646 W00357 - N3655 W00153 - N3824 W00204 - N3822 W00253 SFC/FL120 STNR NC=



MET'MAP, la Météo Aéronautique d'un coup d'oeil ! - Copyright ORBIFLY Décembre 2007 - Disclaimer

ORBIFLY MET'MAP TEAM :

Programmation & Développement : Alexandra Zaïnal
Conception & Développement : Baudouin d'Aumeries
Co-Programmation & Développement : Marc-Olivier Méhu
Soutien technique & logistique : Manuel Goepfert

Contact : metmap@orbifly.com




SOURCES & CREDITS :

   NOAA